Time;durP1;ratioP1;P1;durP2;ratioP2;P2;SDS_P1;SDS_P2;PMS_P1;PMS_P2;Temp;Humidity;BMP_temperature;BMP_pressure;BME280_temperature;BME280_humidity;BME280_pressure;Samples;Min_cycle;Max_cycle;Signal;HPM_P1;HPM_P2
2021/04/16 00:01:04;;;;;;;5.90;3.72;;;;;;;2.76;75.80;102493.69;5047427;28;20045;-81
2021/04/16 00:03:29;;;;;;;5.38;3.53;;;;;;;2.63;76.01;102491.63;5045091;28;20049;-81
2021/04/16 00:05:55;;;;;;;7.72;3.70;;;;;;;2.62;76.43;102494.34;5043636;28;20094;-82
2021/04/16 00:08:25;;;;;;;6.47;3.78;;;;;;;2.64;76.41;102488.03;5027791;28;20040;-80
2021/04/16 00:11:05;;;;;;;7.88;3.65;;;;;;;2.60;76.49;102486.47;5051481;28;20127;-84
2021/04/16 00:13:30;;;;;;;6.18;3.90;;;;;;;2.59;76.79;102487.41;5047756;28;20051;-82
2021/04/16 00:15:56;;;;;;;7.75;3.97;;;;;;;2.54;76.85;102488.56;5046541;28;20041;-83
2021/04/16 00:18:26;;;;;;;6.55;3.85;;;;;;;2.46;76.59;102484.44;5056750;28;20146;-81
2021/04/16 00:20:52;;;;;;;6.40;3.90;;;;;;;2.38;77.05;102481.28;5033643;28;20041;-85
2021/04/16 00:23:19;;;;;;;7.40;3.90;;;;;;;2.39;76.96;102476.88;5047747;28;20045;-80
2021/04/16 00:25:45;;;;;;;6.45;3.75;;;;;;;2.33;77.77;102477.13;5036084;28;20076;-82
2021/04/16 00:28:12;;;;;;;6.75;3.58;;;;;;;2.33;78.01;102474.47;5039483;28;20107;-81
2021/04/16 00:30:46;;;;;;;7.82;3.80;;;;;;;2.29;78.33;102471.13;5019639;28;20091;-81
2021/04/16 00:33:12;;;;;;;7.85;4.00;;;;;;;2.25;78.32;102467.75;5029487;28;20059;-80
2021/04/16 00:35:38;;;;;;;6.20;3.97;;;;;;;2.20;78.16;102466.22;5055061;28;20045;-83
2021/04/16 00:38:05;;;;;;;7.60;4.10;;;;;;;2.15;78.20;102469.06;5035972;28;20910;-86
2021/04/16 00:40:54;;;;;;;5.28;3.70;;;;;;;2.06;77.94;102460.69;5052891;28;20045;-82
2021/04/16 00:43:22;;;;;;;8.07;4.90;;;;;;;2.08;78.99;102458.84;5035705;28;20045;-81
2021/04/16 00:45:49;;;;;;;6.90;3.92;;;;;;;1.87;79.54;102455.34;5037641;28;20044;-81
2021/04/16 00:48:35;;;;;;;6.40;3.80;;;;;;;1.83;80.28;102446.69;5039608;28;20041;-83
2021/04/16 00:51:04;;;;;;;7.63;4.40;;;;;;;1.85;80.38;102439.53;5007861;28;20048;-82
2021/04/16 00:53:30;;;;;;;;;;;;;;;1.79;79.78;102447.75;5038634;28;20087;-81
2021/04/16 00:55:57;;;;;;;6.53;4.10;;;;;;;1.75;81.16;102446.16;5057278;28;19917;-83
2021/04/16 00:58:27;;;;;;;7.25;4.50;;;;;;;1.73;81.02;102443.59;5054733;28;20128;-81
2021/04/16 01:00:55;;;;;;;10.40;3.95;;;;;;;1.71;81.54;102441.94;5051528;28;20396;-83
2021/04/16 01:03:21;;;;;;;5.97;3.92;;;;;;;1.77;81.43;102431.94;5056879;28;20068;-83
2021/04/16 01:05:46;;;;;;;7.30;4.15;;;;;;;1.78;81.67;102433.66;5052287;28;20045;-85
2021/04/16 01:08:12;;;;;;;8.95;4.63;;;;;;;1.79;81.39;102438.03;5053571;28;20052;-83
2021/04/16 01:10:39;;;;;;;5.93;4.05;;;;;;;1.80;81.78;102436.22;5055888;28;20033;-84
2021/04/16 01:13:05;;;;;;;8.32;4.22;;;;;;;1.87;81.58;102432.41;5055221;28;20037;-78
2021/04/16 01:15:36;;;;;;;7.63;4.28;;;;;;;1.84;81.21;102432.50;5055595;28;20550;-82
2021/04/16 01:18:08;;;;;;;5.53;3.90;;;;;;;1.92;80.79;102440.97;5053648;28;20466;-80
2021/04/16 01:20:38;;;;;;;5.90;3.50;;;;;;;1.96;80.76;102431.97;5041661;28;20072;-81
2021/04/16 01:23:37;;;;;;;6.43;3.83;;;;;;;1.99;80.87;102431.84;5044715;28;20497;-84
2021/04/16 01:26:06;;;;;;;7.60;3.63;;;;;;;2.01;80.51;102435.28;5056401;28;20094;-81
2021/04/16 01:28:32;;;;;;;7.72;4.20;;;;;;;2.03;80.63;102433.41;5047669;28;20133;-84
2021/04/16 01:31:01;;;;;;;6.43;3.88;;;;;;;2.10;80.59;102433.13;5032939;28;20049;-81
2021/04/16 01:33:29;;;;;;;5.82;4.03;;;;;;;2.14;80.82;102440.03;5056900;28;20094;-85
2021/04/16 01:35:55;;;;;;;5.60;4.03;;;;;;;2.20;80.51;102445.03;5027412;28;21474;-82
2021/04/16 01:38:21;;;;;;;6.80;3.63;;;;;;;2.28;80.32;102437.63;5056003;28;20048;-81
2021/04/16 01:40:46;;;;;;;6.13;3.60;;;;;;;2.29;80.55;102434.03;5035310;28;20512;-83
2021/04/16 01:43:24;;;;;;;5.53;3.70;;;;;;;2.34;79.96;102439.13;5047995;28;20564;-86
2021/04/16 01:46:16;;;;;;;8.23;4.28;;;;;;;2.34;80.73;102442.63;5049748;28;21331;-82
2021/04/16 01:48:51;;;;;;;7.38;4.38;;;;;;;2.36;80.38;102439.88;5027373;28;20094;-83
2021/04/16 01:51:27;;;;;;;7.90;4.10;;;;;;;2.33;80.48;102432.97;5041909;28;20045;-82
2021/04/16 01:54:05;;;;;;;6.25;4.40;;;;;;;2.35;80.83;102439.03;5036405;28;20864;-82
2021/04/16 01:56:30;;;;;;;8.95;4.63;;;;;;;2.41;80.35;102433.44;5049239;28;20068;-83
2021/04/16 01:58:56;;;;;;;7.65;4.13;;;;;;;2.41;80.84;102430.78;5028346;28;20060;-82
2021/04/16 02:01:21;;;;;;;8.95;4.68;;;;;;;2.46;80.37;102433.25;5036602;28;20504;-81
2021/04/16 02:03:46;;;;;;;8.52;4.20;;;;;;;2.43;80.40;102434.25;5052611;28;20098;-84
2021/04/16 02:06:12;;;;;;;6.78;4.32;;;;;;;2.36;80.98;102430.19;5014325;28;20043;-83
2021/04/16 02:08:37;;;;;;;8.27;3.85;;;;;;;2.41;80.83;102428.16;5036871;28;20462;-83
2021/04/16 02:11:02;;;;;;;8.95;4.22;;;;;;;2.41;81.15;102437.88;5033846;28;20386;-81
2021/04/16 02:13:28;;;;;;;6.40;4.30;;;;;;;2.37;81.03;102429.22;5036803;28;20037;-78
2021/04/16 02:15:53;;;;;;;6.75;3.90;;;;;;;2.34;81.04;102426.72;5020755;28;20148;-82
2021/04/16 02:18:19;;;;;;;7.03;4.13;;;;;;;2.38;81.40;102430.94;5034952;28;20045;-83
2021/04/16 02:20:44;;;;;;;6.82;4.07;;;;;;;2.34;81.31;102428.53;5032267;28;20490;-83
2021/04/16 02:23:10;;;;;;;6.53;4.32;;;;;;;2.28;82.08;102436.75;5032856;28;20397;-82
2021/04/16 02:25:35;;;;;;;7.45;4.53;;;;;;;2.39;81.32;102435.31;5019616;28;20124;-81
2021/04/16 02:28:01;;;;;;;6.80;4.65;;;;;;;2.46;80.95;102435.91;5035487;28;20603;-81
2021/04/16 02:30:31;;;;;;;8.68;4.55;;;;;;;2.39;81.75;102437.13;5048524;28;20094;-79
2021/04/16 02:32:57;;;;;;;7.55;4.40;;;;;;;2.38;81.37;102430.94;5045458;28;20550;-81
2021/04/16 02:35:23;;;;;;;8.43;4.50;;;;;;;2.37;81.91;102431.03;5034584;28;20067;-81
2021/04/16 02:37:48;;;;;;;7.60;4.32;;;;;;;2.33;81.70;102432.97;5050995;28;20041;-85
2021/04/16 02:40:17;;;;;;;9.00;4.43;;;;;;;2.27;82.10;102441.16;5053004;28;20047;-84
2021/04/16 02:42:43;;;;;;;8.40;5.05;;;;;;;2.30;82.49;102432.22;5048411;28;20049;-82
2021/04/16 02:45:11;;;;;;;8.55;4.50;;;;;;;2.32;82.69;102428.56;5033429;28;20045;-82
2021/04/16 02:47:38;;;;;;;8.43;4.47;;;;;;;2.31;82.75;102431.31;5046546;28;20045;-82
2021/04/16 02:50:07;;;;;;;5.88;4.38;;;;;;;2.21;82.93;102429.06;5047804;28;20045;-81
2021/04/16 02:52:32;;;;;;;7.65;4.70;;;;;;;2.21;82.81;102428.22;5054850;28;20044;-81
2021/04/16 02:54:57;;;;;;;7.90;4.30;;;;;;;2.14;83.33;102429.44;5020843;28;20053;-81
2021/04/16 02:57:24;;;;;;;8.70;4.90;;;;;;;2.09;84.25;102432.28;5030564;28;20039;-80
2021/04/16 02:59:51;;;;;;;8.40;4.93;;;;;;;2.06;84.64;102431.56;5049487;28;20478;-81
2021/04/16 03:02:16;;;;;;;8.18;4.40;;;;;;;2.03;84.21;102433.41;5048567;28;20426;-81
2021/04/16 03:04:41;;;;;;;8.70;5.68;;;;;;;1.99;84.46;102429.19;5047686;28;20573;-80
2021/04/16 03:07:07;;;;;;;8.05;4.93;;;;;;;1.97;84.90;102430.19;5033659;28;20496;-83
2021/04/16 03:09:32;;;;;;;8.88;6.18;;;;;;;1.99;84.57;102426.56;5034491;28;20041;-80
2021/04/16 03:11:58;;;;;;;8.18;5.05;;;;;;;1.86;84.92;102435.97;5055354;28;20040;-80
2021/04/16 03:14:23;;;;;;;11.80;5.57;;;;;;;1.79;85.39;102434.53;5030415;28;20390;-82
2021/04/16 03:16:49;;;;;;;10.00;6.35;;;;;;;1.83;85.71;102430.78;5028964;28;20128;-80
2021/04/16 03:19:15;;;;;;;8.48;6.20;;;;;;;1.74;85.74;102424.13;5038505;28;20032;-81
2021/04/16 03:21:40;;;;;;;9.27;5.93;;;;;;;1.74;86.24;102425.91;5046992;28;20116;-79
2021/04/16 03:24:06;;;;;;;8.70;6.20;;;;;;;1.74;86.07;102433.84;5052139;28;20182;-80
2021/04/16 03:26:31;;;;;;;8.73;6.32;;;;;;;1.79;85.76;102429.22;5028967;28;20050;-80
2021/04/16 03:28:59;;;;;;;9.93;6.05;;;;;;;1.82;85.74;102433.53;5045601;28;20485;-84
2021/04/16 03:31:26;;;;;;;9.48;6.25;;;;;;;1.80;85.89;102436.22;5027955;28;20059;-84
2021/04/16 03:33:53;;;;;;;9.73;5.78;;;;;;;1.71;86.34;102429.56;5037158;28;20044;-80
2021/04/16 03:36:19;;;;;;;11.52;6.07;;;;;;;1.65;86.48;102431.63;5046958;28;20475;-78
2021/04/16 03:38:46;;;;;;;10.30;6.40;;;;;;;1.66;86.40;102436.81;5046541;28;20124;-79
2021/04/16 03:41:11;;;;;;;9.23;5.85;;;;;;;1.69;86.90;102435.84;5047794;28;20135;-81
2021/04/16 03:43:37;;;;;;;9.90;5.97;;;;;;;1.67;86.62;102425.34;5029997;28;20044;-83
2021/04/16 03:46:02;;;;;;;10.73;5.70;;;;;;;1.66;87.03;102434.19;5030261;28;20033;-84
2021/04/16 03:48:28;;;;;;;8.93;6.70;;;;;;;1.58;87.29;102437.19;5028089;28;20044;-86
2021/04/16 03:50:54;;;;;;;10.85;6.85;;;;;;;1.58;88.07;102434.53;5026142;28;20052;-85
2021/04/16 03:53:19;;;;;;;10.65;6.85;;;;;;;1.62;87.83;102437.03;5014555;28;20075;-79
2021/04/16 03:55:45;;;;;;;9.40;7.18;;;;;;;1.63;87.56;102433.47;5046999;28;20037;-85
2021/04/16 03:58:12;;;;;;;12.05;7.10;;;;;;;1.57;88.24;102435.44;5014539;28;20036;-81
2021/04/16 04:00:40;;;;;;;13.27;7.40;;;;;;;1.64;88.13;102428.13;5029487;28;20489;-81
2021/04/16 04:03:11;;;;;;;11.57;8.23;;;;;;;1.56;88.24;102433.72;5023537;28;20552;-83
2021/04/16 04:05:37;;;;;;;13.90;8.57;;;;;;;1.59;88.73;102430.09;5054630;28;20068;-81
2021/04/16 04:08:03;;;;;;;13.68;7.38;;;;;;;1.58;88.67;102428.34;5050338;28;20041;-81
2021/04/16 04:10:35;;;;;;;14.43;8.00;;;;;;;1.69;87.99;102419.97;5037319;28;20040;-84
2021/04/16 04:13:01;;;;;;;11.52;7.10;;;;;;;1.68;88.30;102424.41;5044564;28;20264;-82
2021/04/16 04:15:27;;;;;;;14.07;7.32;;;;;;;1.62;88.65;102429.97;5049538;28;20082;-82
2021/04/16 04:17:54;;;;;;;12.38;7.25;;;;;;;1.66;88.84;102425.38;5029376;28;20040;-82
2021/04/16 04:20:23;;;;;;;12.13;7.10;;;;;;;1.66;88.93;102428.88;5046400;28;20076;-84
2021/04/16 04:22:49;;;;;;;10.52;7.20;;;;;;;1.70;89.13;102432.28;5030029;28;20065;-84
2021/04/16 04:25:21;;;;;;;11.65;7.32;;;;;;;1.75;88.81;102433.78;5042771;28;20041;-87
2021/04/16 04:27:47;;;;;;;12.55;7.75;;;;;;;1.76;88.92;102435.50;5024254;28;20029;-86
2021/04/16 04:30:13;;;;;;;12.82;7.30;;;;;;;1.84;88.61;102429.84;5042484;28;20099;-82
2021/04/16 04:32:38;;;;;;;13.40;7.40;;;;;;;1.87;88.50;102423.56;5044188;28;20499;-85
2021/04/16 04:35:05;;;;;;;14.10;7.32;;;;;;;1.88;89.08;102431.47;5031092;28;20049;-83
2021/04/16 04:37:30;;;;;;;9.70;7.07;;;;;;;1.87;89.15;102434.16;5041672;28;20039;-81
2021/04/16 04:39:55;;;;;;;12.25;7.57;;;;;;;1.85;89.46;102428.94;5026029;28;20045;-80
2021/04/16 04:42:21;;;;;;;18.00;7.50;;;;;;;1.91;89.06;102428.69;5046151;28;20086;-83
2021/04/16 04:44:46;;;;;;;10.88;7.28;;;;;;;1.94;89.23;102427.69;5042553;28;20052;-78
2021/04/16 04:47:12;;;;;;;12.63;8.38;;;;;;;2.01;88.68;102430.00;5029778;28;20404;-83
2021/04/16 04:49:38;;;;;;;11.27;7.68;;;;;;;2.00;89.21;102433.56;5034969;28;20049;-82
2021/04/16 04:52:24;;;;;;;11.10;7.93;;;;;;;2.06;89.25;102432.41;5045907;28;20053;-83
2021/04/16 04:54:51;;;;;;;15.38;8.27;;;;;;;2.11;88.54;102437.53;5026458;28;20681;-84
2021/04/16 04:57:20;;;;;;;13.63;8.25;;;;;;;2.11;89.13;102437.53;5019049;28;20116;-82
2021/04/16 04:59:46;;;;;;;11.15;7.97;;;;;;;2.15;88.45;102428.50;5032428;28;20507;-82
2021/04/16 05:02:12;;;;;;;14.52;9.60;;;;;;;2.13;89.01;102425.94;5046210;28;20136;-83
2021/04/16 05:04:38;;;;;;;15.23;8.77;;;;;;;2.16;88.92;102430.25;5047050;28;20056;-83
2021/04/16 05:07:04;;;;;;;12.77;8.50;;;;;;;2.10;90.16;102431.38;5049962;28;20056;-85
2021/04/16 05:09:30;;;;;;;11.55;9.52;;;;;;;2.14;89.32;102426.78;5047332;28;20039;-81
2021/04/16 05:11:55;;;;;;;14.55;9.50;;;;;;;2.23;88.72;102426.34;5027203;28;20500;-84
2021/04/16 05:14:21;;;;;;;12.43;8.93;;;;;;;2.29;89.00;102425.22;5015512;28;20111;-84
2021/04/16 05:16:47;;;;;;;12.48;8.60;;;;;;;2.26;88.94;102426.22;5047708;28;20366;-81
2021/04/16 05:19:12;;;;;;;14.07;9.60;;;;;;;2.28;89.01;102431.47;5049813;28;20044;-82
2021/04/16 05:21:39;;;;;;;13.98;8.55;;;;;;;2.34;88.83;102429.38;5046066;28;20118;-79
2021/04/16 05:24:06;;;;;;;15.45;9.43;;;;;;;2.40;88.66;102434.38;5047380;28;20493;-82
2021/04/16 05:26:32;;;;;;;13.48;8.25;;;;;;;2.48;87.99;102434.91;5038309;28;20059;-82
2021/04/16 05:28:57;;;;;;;14.30;8.55;;;;;;;2.49;88.04;102433.94;5035067;28;20045;-83
2021/04/16 05:31:24;;;;;;;16.08;8.77;;;;;;;2.48;88.58;102434.03;5038688;28;20036;-82
2021/04/16 05:33:50;;;;;;;14.75;8.25;;;;;;;2.51;88.71;102431.25;5051478;28;20044;-79
2021/04/16 05:36:16;;;;;;;14.80;8.98;;;;;;;2.56;87.94;102434.53;5031206;28;20028;-84
2021/04/16 05:38:41;;;;;;;10.57;8.07;;;;;;;2.63;88.02;102446.56;5028162;28;20040;-80
2021/04/16 05:41:07;;;;;;;12.50;8.20;;;;;;;2.64;88.03;102444.75;5014750;28;20575;-83
2021/04/16 05:43:32;;;;;;;14.52;8.55;;;;;;;2.65;87.40;102441.19;5033068;28;20049;-80
2021/04/16 05:45:57;;;;;;;14.18;8.73;;;;;;;2.68;88.08;102441.06;5027578;28;20053;-83
2021/04/16 05:48:23;;;;;;;14.90;9.05;;;;;;;2.74;87.77;102447.84;5033610;28;20098;-83
2021/04/16 05:50:49;;;;;;;15.18;9.93;;;;;;;2.71;88.16;102435.59;5021012;28;20045;-82
2021/04/16 05:53:14;;;;;;;14.85;8.18;;;;;;;2.77;87.13;102437.97;5028335;28;20449;-82
2021/04/16 05:55:40;;;;;;;9.85;7.20;;;;;;;2.80;87.97;102435.16;5043424;28;20049;-83
2021/04/16 05:58:06;;;;;;;13.82;8.50;;;;;;;2.84;87.24;102439.38;5029490;28;20131;-83
2021/04/16 06:00:32;;;;;;;14.05;7.65;;;;;;;2.86;87.78;102432.19;5011393;28;20540;-84
2021/04/16 06:02:57;;;;;;;13.10;8.20;;;;;;;2.89;87.19;102440.00;5043818;28;20137;-80
2021/04/16 06:05:22;;;;;;;14.57;8.20;;;;;;;2.91;87.16;102443.47;5028516;28;20474;-84
2021/04/16 06:07:49;;;;;;;12.95;7.93;;;;;;;2.94;87.58;102438.00;5039658;28;20056;-83
2021/04/16 06:10:16;;;;;;;10.57;7.55;;;;;;;3.09;87.39;102440.84;5009832;28;20041;-81
2021/04/16 06:12:47;;;;;;;13.18;7.70;;;;;;;3.21;86.25;102432.25;5043739;28;20044;-79
2021/04/16 06:15:18;;;;;;;12.90;8.10;;;;;;;3.23;86.55;102448.97;4981298;28;20045;-79
2021/04/16 06:17:44;;;;;;;12.45;9.00;;;;;;;3.32;85.97;102448.50;5002025;28;20133;-83
2021/04/16 06:20:13;;;;;;;13.75;8.32;;;;;;;3.36;86.56;102434.13;4991160;28;20418;-82
2021/04/16 06:22:39;;;;;;;12.43;6.83;;;;;;;3.40;85.75;102440.16;5002284;28;20046;-79
2021/04/16 06:25:06;;;;;;;16.08;8.10;;;;;;;3.45;86.14;102431.94;4997546;28;20078;-83
2021/04/16 06:27:31;;;;;;;12.07;7.63;;;;;;;3.48;85.76;102426.50;5003748;28;20050;-83
2021/04/16 06:29:57;;;;;;;13.02;8.13;;;;;;;3.56;84.36;102434.91;4995417;28;20096;-78
2021/04/16 06:32:23;;;;;;;11.73;7.55;;;;;;;3.67;85.00;102429.06;5004714;28;20558;-85
2021/04/16 06:34:48;;;;;;;14.38;7.93;;;;;;;3.81;84.27;102430.06;4999685;28;20053;-80
2021/04/16 06:37:14;;;;;;;24.00;12.95;;;;;;;3.92;83.43;102428.66;4980355;28;20415;-84
2021/04/16 06:39:40;;;;;;;11.20;7.53;;;;;;;4.01;83.14;102425.50;4974632;28;20619;-79
2021/04/16 06:42:15;;;;;;;10.80;6.28;;;;;;;4.05;83.20;102438.50;4947861;28;20046;-81
2021/04/16 06:44:44;;;;;;;12.50;6.65;;;;;;;4.15;83.73;102436.25;5000121;28;20045;-83
2021/04/16 06:47:17;;;;;;;9.52;6.80;;;;;;;4.24;83.18;102427.78;4985000;28;20046;-83
2021/04/16 06:49:42;;;;;;;10.95;6.82;;;;;;;4.25;82.48;102432.13;4991867;28;20070;-83
2021/04/16 06:52:25;;;;;;;10.15;7.40;;;;;;;4.27;83.00;102432.06;5002240;28;20052;-81
2021/04/16 06:54:55;;;;;;;11.60;6.63;;;;;;;4.23;82.44;102423.41;4995892;28;20042;-83
2021/04/16 06:57:27;;;;;;;10.68;7.35;;;;;;;4.22;84.14;102424.34;5001724;28;20089;-81
2021/04/16 07:00:01;;;;;;;8.95;6.25;;;;;;;4.42;83.68;102420.59;5009829;28;20125;-81
2021/04/16 07:02:36;;;;;;;11.43;6.95;;;;;;;4.63;82.00;102428.31;5044354;28;20563;-78
2021/04/16 07:05:03;;;;;;;11.13;6.95;;;;;;;4.78;81.67;102423.97;5028319;28;20037;-82
2021/04/16 07:07:40;;;;;;;9.80;6.50;;;;;;;4.83;81.04;102420.06;5030829;28;20033;-85
2021/04/16 07:10:16;;;;;;;10.82;6.75;;;;;;;4.86;80.60;102424.34;5023596;28;20501;-82
2021/04/16 07:12:43;;;;;;;10.13;6.80;;;;;;;4.89;80.36;102426.84;5041838;28;20700;-81
2021/04/16 07:15:13;;;;;;;11.13;6.50;;;;;;;4.88;79.93;102422.47;5011156;28;20052;-80
2021/04/16 07:17:41;;;;;;;11.75;7.03;;;;;;;4.94;79.84;102427.44;5027922;28;20029;-80
2021/04/16 07:20:09;;;;;;;10.30;7.35;;;;;;;4.92;79.55;102435.53;5042788;28;20044;-81
2021/04/16 07:22:45;;;;;;;11.30;6.60;;;;;;;4.86;79.79;102429.66;5025823;28;20044;-80
2021/04/16 07:25:27;;;;;;;12.65;7.32;;;;;;;4.88;80.07;102427.78;5004385;28;20037;-80
2021/04/16 07:28:01;;;;;;;12.27;6.90;;;;;;;4.82;79.98;102428.13;5027138;28;20049;-81
2021/04/16 07:30:43;;;;;;;13.77;7.22;;;;;;;4.84;80.26;102428.91;5045375;28;20068;-78
2021/04/16 07:33:32;;;;;;;12.10;7.10;;;;;;;4.86;79.87;102427.00;5027131;28;20029;-78
2021/04/16 07:36:25;;;;;;;10.25;6.70;;;;;;;4.80;79.09;102430.88;5041831;28;20044;-83
2021/04/16 07:39:17;;;;;;;8.95;6.85;;;;;;;4.84;79.55;102428.91;5028089;28;20037;-84
2021/04/16 07:41:47;;;;;;;10.75;6.35;;;;;;;4.86;79.08;102429.66;5043186;28;20061;-81
2021/04/16 07:44:21;;;;;;;12.95;6.65;;;;;;;4.89;78.86;102434.81;5044529;28;20037;-81
2021/04/16 07:46:50;;;;;;;12.25;8.02;;;;;;;4.95;78.74;102429.16;5018046;28;20063;-80
2021/04/16 07:49:23;;;;;;;11.32;6.53;;;;;;;4.95;78.48;102432.69;5028839;28;20090;-82
2021/04/16 07:51:51;;;;;;;10.73;6.60;;;;;;;5.03;78.41;102437.53;5026832;28;20047;-79
2021/04/16 07:54:35;;;;;;;9.25;6.28;;;;;;;5.07;77.65;102433.78;5041666;28;20067;-79
2021/04/16 07:57:19;;;;;;;7.88;5.68;;;;;;;5.02;78.05;102435.84;5044391;28;20060;-80
2021/04/16 08:00:02;;;;;;;11.68;6.28;;;;;;;5.16;78.42;102425.25;5045438;28;20045;-78
2021/04/16 08:02:33;;;;;;;21.33;11.93;;;;;;;5.25;77.22;102426.53;5038934;28;20054;-83
2021/04/16 08:04:58;;;;;;;10.07;6.40;;;;;;;5.31;77.06;102438.63;5042871;28;20065;-84
2021/04/16 08:07:30;;;;;;;10.95;6.35;;;;;;;5.50;76.54;102433.06;5046677;28;20118;-85
2021/04/16 08:09:57;;;;;;;9.80;5.43;;;;;;;5.60;76.18;102429.75;5027601;28;20036;-83
2021/04/16 08:12:26;;;;;;;10.60;6.18;;;;;;;5.65;75.27;102418.84;5042259;28;20051;-82
2021/04/16 08:15:14;;;;;;;9.80;5.90;;;;;;;5.78;75.85;102429.59;5041671;28;20045;-82
2021/04/16 08:17:40;;;;;;;11.23;7.00;;;;;;;5.86;75.05;102424.66;5025672;28;20036;-83
2021/04/16 08:20:37;;;;;;;10.43;6.28;;;;;;;6.10;74.64;102415.19;5034737;28;20354;-82
2021/04/16 08:23:04;;;;;;;10.93;5.93;;;;;;;6.28;74.50;102423.00;5027744;28;20063;-81
2021/04/16 08:25:39;;;;;;;10.65;6.25;;;;;;;6.31;74.31;102426.31;5026074;28;20175;-82
2021/04/16 08:28:11;;;;;;;10.65;5.85;;;;;;;6.38;73.67;102418.78;5038781;28;20246;-82
2021/04/16 08:30:55;;;;;;;11.23;6.78;;;;;;;6.53;75.53;102419.59;5037611;28;20060;-83
2021/04/16 08:33:34;;;;;;;9.23;5.82;;;;;;;6.74;72.64;102418.22;5016217;28;20068;-82
2021/04/16 08:36:10;;;;;;;9.63;6.13;;;;;;;6.84;73.15;102418.47;5042311;28;20106;-83
2021/04/16 08:38:49;;;;;;;9.60;5.70;;;;;;;6.93;71.01;102420.56;5026774;28;20144;-81
2021/04/16 08:41:15;;;;;;;8.40;5.03;;;;;;;7.10;71.61;102416.75;5006905;28;20045;-82
2021/04/16 08:43:51;;;;;;;6.75;4.00;;;;;;;7.35;67.71;102417.78;5044199;28;20037;-83
2021/04/16 08:46:51;;;;;;;7.53;4.03;;;;;;;7.51;64.74;102412.25;5037789;28;20057;-82
2021/04/16 08:49:24;;;;;;;4.38;2.83;;;;;;;7.74;63.29;102416.88;5037427;28;20044;-81
2021/04/16 08:52:25;;;;;;;7.30;2.95;;;;;;;7.87;62.28;102406.19;5027952;28;20060;-83
2021/04/16 08:54:52;;;;;;;5.22;2.72;;;;;;;8.00;59.28;102406.16;5008166;28;20472;-81
2021/04/16 08:57:19;;;;;;;4.00;2.08;;;;;;;8.02;58.24;102393.56;5043191;28;20525;-82
2021/04/16 08:59:54;;;;;;;4.97;2.33;;;;;;;8.12;58.56;102403.50;5042790;28;20136;-83
2021/04/16 09:02:23;;;;;;;3.80;2.50;;;;;;;8.20;59.05;102408.31;5027831;28;20106;-85
2021/04/16 09:04:52;;;;;;;5.75;2.15;;;;;;;8.32;58.21;102407.44;5040026;28;20040;-83
2021/04/16 09:07:45;;;;;;;4.28;2.78;;;;;;;8.59;57.72;102393.88;5047189;28;20065;-83
2021/04/16 09:10:14;;;;;;;4.50;1.63;;;;;;;8.54;56.03;102392.50;5025373;28;20052;-81
2021/04/16 09:12:39;;;;;;;4.00;1.70;;;;;;;8.62;54.47;102398.16;5045858;28;20114;-85
2021/04/16 09:15:12;;;;;;;3.30;2.00;;;;;;;8.76;54.98;102384.63;5029970;28;20100;-81
2021/04/16 09:17:52;;;;;;;3.88;1.80;;;;;;;8.61;52.74;102391.13;5045859;28;20055;-81
2021/04/16 09:20:24;;;;;;;4.57;2.40;;;;;;;8.59;53.15;102393.88;5029132;28;20041;-81
2021/04/16 09:22:51;;;;;;;3.50;2.50;;;;;;;8.63;52.66;102390.97;5046927;28;20516;-79
2021/04/16 09:25:32;;;;;;;4.32;2.40;;;;;;;8.75;53.33;102382.94;5029942;28;20359;-81
2021/04/16 09:28:22;;;;;;;5.70;1.80;;;;;;;8.90;53.91;102382.75;5046127;28;20060;-81
2021/04/16 09:31:03;;;;;;;5.30;1.85;;;;;;;9.06;52.76;102388.66;5030149;28;20092;-84
2021/04/16 09:33:38;;;;;;;3.55;1.40;;;;;;;9.21;50.30;102384.81;5046456;28;20037;-78
2021/04/16 09:36:09;;;;;;;2.65;1.88;;;;;;;9.32;50.86;102381.34;5026715;28;20041;-84
2021/04/16 09:38:53;;;;;;;2.92;1.52;;;;;;;9.40;51.13;102380.72;5030632;28;20025;-86
2021/04/16 09:41:19;;;;;;;3.67;1.67;;;;;;;9.33;50.87;102387.53;5018098;28;20177;-82
2021/04/16 09:43:56;;;;;;;3.80;1.88;;;;;;;9.43;52.42;102378.66;5049018;28;20072;-81
2021/04/16 09:46:30;;;;;;;2.88;1.52;;;;;;;9.62;50.54;102374.56;5001119;28;20037;-85
2021/04/16 09:49:03;;;;;;;3.15;1.95;;;;;;;9.56;49.09;102377.75;5028655;28;20561;-83
2021/04/16 09:51:49;;;;;;;4.75;1.98;;;;;;;9.37;48.29;102378.28;5030626;28;20037;-83
2021/04/16 09:54:21;;;;;;;3.38;1.73;;;;;;;9.46;48.47;102372.22;5048495;28;20037;-83
2021/04/16 09:57:02;;;;;;;4.57;2.00;;;;;;;9.44;48.12;102368.81;5030112;28;20033;-85
2021/04/16 09:59:46;;;;;;;3.55;1.70;;;;;;;9.62;49.73;102375.44;5021960;28;20110;-86
2021/04/16 10:02:12;;;;;;;4.13;1.80;;;;;;;9.87;49.82;102381.56;5036257;28;20041;-81
2021/04/16 10:04:58;;;;;;;5.15;2.47;;;;;;;9.98;49.00;102373.50;5031009;28;20041;-83
2021/04/16 10:07:50;;;;;;;3.47;1.83;;;;;;;10.14;47.44;102365.94;5039943;28;20045;-83
2021/04/16 10:10:53;;;;;;;4.50;2.00;;;;;;;9.97;45.60;102365.59;5027817;28;20481;-81
2021/04/16 10:13:30;;;;;;;3.58;1.80;;;;;;;9.98;46.88;102362.75;4992945;28;20052;-84
2021/04/16 10:15:57;;;;;;;4.95;1.88;;;;;;;9.98;46.54;102354.72;5025194;28;20119;-81
2021/04/16 10:18:36;;;;;;;3.78;1.60;;;;;;;10.05;47.55;102355.94;5030609;28;20128;-82
2021/04/16 10:21:29;;;;;;;3.83;1.90;;;;;;;10.15;46.00;102348.84;5028694;28;20073;-84
2021/04/16 12:37:59;;;;;;;3.85;1.90;;;;;;;13.50;43.31;102244.06;5042936;28;20465;-82
2021/04/16 12:40:26;;;;;;;3.85;1.98;;;;;;;13.75;44.54;102231.72;5010110;28;20056;-88
2021/04/16 12:42:57;;;;;;;3.88;2.05;;;;;;;13.83;42.01;102231.81;5040500;28;20250;-82
2021/04/16 12:45:23;;;;;;;3.42;2.10;;;;;;;13.89;43.40;102224.97;5043577;28;20094;-87
2021/04/16 12:47:52;;;;;;;3.92;2.05;;;;;;;14.09;44.59;102223.84;5026745;28;20044;-84
2021/04/16 12:50:18;;;;;;;3.60;2.05;;;;;;;14.22;43.06;102223.47;5030602;28;20498;-80
2021/04/16 12:52:43;;;;;;;5.68;2.00;;;;;;;13.92;44.05;102221.97;5012492;28;20139;-85
2021/04/16 12:55:10;;;;;;;5.78;2.20;;;;;;;13.43;43.55;102226.75;5027782;28;20041;-84
2021/04/16 12:57:48;;;;;;;4.88;1.90;;;;;;;13.31;45.01;102223.41;5045295;28;20048;-84
2021/04/16 13:00:14;;;;;;;4.87;2.10;;;;;;;13.16;42.84;102223.00;5043755;28;20052;-83
2021/04/16 13:02:39;;;;;;;3.70;1.98;;;;;;;13.18;47.76;102222.88;5045513;28;20041;-81
2021/04/16 13:05:08;;;;;;;4.97;2.08;;;;;;;13.61;47.74;102219.59;5028043;28;20044;-82
2021/04/16 13:07:34;;;;;;;3.42;1.90;;;;;;;14.03;44.89;102219.06;5029287;28;20048;-87
2021/04/16 13:09:59;;;;;;;3.72;1.90;;;;;;;14.16;44.79;102214.13;5012562;28;20041;-90
2021/04/16 13:12:25;;;;;;;4.57;2.15;;;;;;;13.72;42.42;102213.13;5028865;28;20041;-89
2021/04/16 13:14:51;;;;;;;3.47;1.90;;;;;;;13.66;44.06;102209.19;5043367;28;20041;-89
2021/04/16 13:17:23;;;;;;;3.75;1.98;;;;;;;13.61;44.67;102208.81;5028516;28;20045;-90
2021/04/16 13:19:50;;;;;;;2.58;1.65;;;;;;;13.64;47.16;102208.50;5030029;28;20033;-85
2021/04/16 13:22:17;;;;;;;3.28;2.00;;;;;;;13.58;43.47;102203.72;5041084;28;20095;-83
2021/04/16 13:24:44;;;;;;;4.63;2.00;;;;;;;13.65;43.75;102203.94;5026554;28;20389;-89
2021/04/16 13:27:13;;;;;;;4.47;2.17;;;;;;;13.56;43.47;102199.47;5046816;28;20076;-86
2021/04/16 13:29:39;;;;;;;4.05;1.70;;;;;;;13.51;43.34;102197.19;5029357;28;20044;-85
2021/04/16 13:32:09;;;;;;;2.92;1.80;;;;;;;13.42;43.77;102198.09;5042551;28;20041;-86
2021/04/16 13:34:38;;;;;;;4.50;2.10;;;;;;;13.31;44.56;102191.03;5030147;28;20048;-85
2021/04/16 13:37:04;;;;;;;5.00;2.38;;;;;;;13.10;45.91;102192.09;5030901;28;20432;-85
2021/04/16 13:39:29;;;;;;;4.05;1.98;;;;;;;13.05;45.97;102188.13;5014666;28;20040;-88
2021/04/16 13:41:55;;;;;;;4.15;2.40;;;;;;;13.02;46.84;102185.72;5046974;28;20401;-84
2021/04/16 13:44:20;;;;;;;4.70;2.55;;;;;;;13.08;45.04;102187.84;5032092;28;20168;-84
2021/04/16 13:46:48;;;;;;;5.93;3.00;;;;;;;13.15;48.77;102185.38;5048841;28;20389;-86
2021/04/16 13:49:19;;;;;;;7.35;2.40;;;;;;;13.24;45.96;102179.97;5047170;28;20033;-88
2021/04/16 13:51:44;;;;;;;3.17;1.80;;;;;;;13.23;48.27;102175.56;5053110;28;20045;-82
2021/04/16 13:54:13;;;;;;;3.83;2.13;;;;;;;13.15;44.58;102174.59;5006404;28;20045;-84
2021/04/16 13:56:39;;;;;;;4.93;2.08;;;;;;;12.93;47.26;102179.38;5046959;28;20041;-86